Time;durP1;ratioP1;P1;durP2;ratioP2;P2;SDS_P1;SDS_P2;PMS_P1;PMS_P2;Temp;Humidity;BMP_temperature;BMP_pressure;BME280_temperature;BME280_humidity;BME280_pressure;Samples;Min_cycle;Max_cycle;Signal;HPM_P1;HPM_P2
2023/01/28 00:02:49;;;;;;;12.23;7.27;;;-2.10;99.90;-1.30;96689.00;;;;5086272;28;20535;-83
2023/01/28 00:05:38;;;;;;;10.83;6.33;;;-2.10;99.90;-1.40;96689.00;;;;5087457;28;20415;-84
2023/01/28 00:08:27;;;;;;;9.03;5.50;;;-1.80;99.90;-1.40;96688.00;;;;5084216;28;20427;-84
2023/01/28 00:11:15;;;;;;;10.07;5.53;;;-2.20;99.90;-1.60;96691.00;;;;5083510;28;20454;-84
2023/01/28 00:14:04;;;;;;;8.63;6.30;;;-2.20;99.90;-1.50;96686.00;;;;5054439;28;20447;-84
2023/01/28 00:16:53;;;;;;;10.70;7.23;;;-2.30;99.90;-1.40;96686.00;;;;5071985;28;20423;-85
2023/01/28 00:19:43;;;;;;;9.30;5.67;;;-2.30;99.90;-1.40;96694.00;;;;5084164;28;20940;-83
2023/01/28 00:22:33;;;;;;;7.87;6.00;;;0.40;99.90;-1.60;96692.00;;;;5081838;28;20446;-85
2023/01/28 00:25:22;;;;;;;3.47;3.10;;;-2.30;99.90;-2.30;96681.00;;;;5084007;28;20422;-82
2023/01/28 00:28:11;;;;;;;7.30;4.93;;;0.10;99.90;-2.20;96696.00;;;;5073571;28;20439;-83
2023/01/28 00:31:06;;;;;;;5.97;5.40;;;-2.60;99.90;-2.00;96695.00;;;;5081536;28;20462;-84
2023/01/28 00:33:56;;;;;;;10.37;6.63;;;-2.70;99.90;-1.70;96690.00;;;;5083555;28;20445;-83
2023/01/28 00:36:56;;;;;;;7.83;5.33;;;-2.70;99.90;-1.40;96703.00;;;;5077640;28;20423;-84
2023/01/28 00:39:44;;;;;;;7.03;4.33;;;-1.80;99.90;-1.40;96697.00;;;;5085496;28;20423;-84
2023/01/28 00:42:33;;;;;;;7.83;5.10;;;-2.50;99.90;-1.20;96708.00;;;;5084240;28;20455;-83
2023/01/28 00:45:22;;;;;;;9.83;5.17;;;-2.40;99.90;-1.50;96701.00;;;;5072358;28;20925;-84
2023/01/28 00:48:11;;;;;;;6.87;2.20;;;-2.30;99.90;-1.50;96702.00;;;;5065245;28;20429;-84
2023/01/28 00:50:59;;;;;;;6.23;5.63;;;-0.20;99.90;-1.40;96711.00;;;;5085972;28;20476;-83
2023/01/28 00:53:50;;;;;;;7.17;4.77;;;-2.30;99.90;-1.40;96714.00;;;;5084527;28;20441;-84
2023/01/28 00:56:39;;;;;;;5.50;4.53;;;-0.40;99.90;-1.60;96710.00;;;;5084988;28;20427;-84
2023/01/28 00:59:27;;;;;;;5.83;5.30;;;-1.20;99.90;-1.20;96701.00;;;;5084881;28;20462;-84
2023/01/28 01:02:16;;;;;;;5.77;4.37;;;-1.50;99.90;-0.90;96704.00;;;;5085159;28;20449;-84
2023/01/28 01:05:06;;;;;;;6.20;4.87;;;-1.00;99.90;-0.90;96705.00;;;;5083511;28;20466;-84
2023/01/28 01:07:55;;;;;;;9.60;4.63;;;-2.00;99.90;-1.20;96701.00;;;;5069628;28;20439;-84
2023/01/28 01:10:45;;;;;;;8.67;5.37;;;-1.70;99.90;-1.60;96701.00;;;;5071472;28;21013;-85
2023/01/28 01:13:34;;;;;;;4.80;3.80;;;-2.10;99.90;-1.40;96707.00;;;;5063391;28;20459;-85
2023/01/28 01:16:26;;;;;;;6.77;5.57;;;-0.20;99.90;-1.60;96707.00;;;;5072100;28;20430;-83
2023/01/28 01:19:14;;;;;;;5.67;3.73;;;-2.10;99.90;-1.40;96706.00;;;;5083333;28;20449;-83
2023/01/28 01:22:03;;;;;;;6.37;5.13;;;-2.10;99.90;-1.20;96710.00;;;;5084839;28;20505;-84
2023/01/28 01:24:52;;;;;;;6.13;3.70;;;-2.10;99.90;-1.00;96711.00;;;;5085867;28;20466;-84
2023/01/28 01:27:44;;;;;;;7.23;5.43;;;-0.60;99.90;-0.90;96712.00;;;;5079618;28;20439;-82
2023/01/28 01:30:33;;;;;;;5.10;3.80;;;0.20;99.90;-0.90;96718.00;;;;5079920;28;20521;-83
2023/01/28 01:33:22;;;;;;;6.30;4.43;;;-1.30;99.90;-0.80;96712.00;;;;5085500;28;20418;-82
2023/01/28 01:36:12;;;;;;;6.70;3.97;;;-0.50;99.90;-1.20;96717.00;;;;5085171;28;20423;-84
2023/01/28 01:39:01;;;;;;;3.70;3.40;;;-2.00;99.90;-1.30;96719.00;;;;5084528;28;20434;-83
2023/01/28 01:41:50;;;;;;;4.57;3.47;;;-2.00;99.90;-1.20;96711.00;;;;5084834;28;20973;-84
2023/01/28 01:45:06;;;;;;;7.63;3.63;;;-2.00;99.90;-1.40;96721.00;;;;5070179;28;20923;-83
2023/01/28 01:48:03;;;;;;;4.23;3.10;;;-0.60;99.90;-1.20;96705.00;;;;5053388;28;20962;-83
2023/01/28 01:50:57;;;;;;;6.67;3.00;;;-2.10;99.90;-1.40;96712.00;;;;5083249;28;20438;-83
2023/01/28 01:53:49;;;;;;;5.37;4.87;;;-0.30;99.90;-1.10;96716.00;;;;5083803;28;20423;-83
2023/01/28 01:56:43;;;;;;;7.27;5.10;;;-2.10;99.90;-0.90;96716.00;;;;5084839;28;20438;-83
2023/01/28 01:59:34;;;;;;;4.77;3.40;;;-0.20;99.90;-1.00;96718.00;;;;5072134;28;20442;-83
2023/01/28 02:02:24;;;;;;;3.60;3.30;;;-1.60;99.90;-1.00;96729.00;;;;5069966;28;20443;-84
2023/01/28 02:05:18;;;;;;;6.87;3.80;;;-1.00;99.90;-1.20;96723.00;;;;5084262;28;20473;-85
2023/01/28 02:08:24;;;;;;;5.47;4.10;;;-2.00;99.90;-1.00;96720.00;;;;5082813;28;20937;-84
2023/01/28 02:11:16;;;;;;;9.73;4.20;;;-2.00;99.90;-0.90;96732.00;;;;5082931;28;20454;-83
2023/01/28 02:14:06;;;;;;;4.77;3.57;;;-1.50;99.90;-1.00;96740.00;;;;5053315;28;20433;-86
2023/01/28 02:16:55;;;;;;;4.53;3.20;;;-1.20;99.90;-0.80;96733.00;;;;5081224;28;20453;-84
2023/01/28 02:19:52;;;;;;;4.03;3.67;;;-1.40;99.90;-1.00;96729.00;;;;5081178;28;20430;-84
2023/01/28 02:23:24;;;;;;;5.57;3.40;;;0.00;99.90;-1.00;96735.00;;;;5083339;28;20450;-83
2023/01/28 02:27:01;;;;;;;4.40;3.57;;;-1.90;99.90;-1.00;96722.00;;;;5082490;28;20435;-83
2023/01/28 02:29:59;;;;;;;4.93;3.70;;;-1.90;99.90;-1.10;96729.00;;;;5057213;28;20425;-82
2023/01/28 02:32:54;;;;;;;5.83;4.13;;;-0.60;99.90;-1.10;96720.00;;;;5082998;28;20454;-84
2023/01/28 02:35:49;;;;;;;2.77;2.53;;;-1.90;99.90;-1.10;96729.00;;;;5067721;28;20427;-83
2023/01/28 02:38:45;;;;;;;4.03;3.33;;;-1.40;99.90;-1.30;96719.00;;;;5068716;28;20430;-84
2023/01/28 02:41:41;;;;;;;2.67;2.40;;;0.30;99.90;-1.50;96709.00;;;;5071745;28;20461;-84
2023/01/28 02:44:30;;;;;;;3.30;3.00;;;-2.00;99.90;-1.30;96715.00;;;;5074905;28;20459;-84
2023/01/28 02:50:38;;;;;;;4.37;3.13;;;-2.00;99.90;-1.30;96709.00;;;;5083381;28;20488;-84
2023/01/28 02:53:42;;;;;;;3.13;2.40;;;0.10;99.90;-1.10;96715.00;;;;5084861;28;20427;-83
2023/01/28 02:56:42;;;;;;;5.13;3.63;;;-1.90;99.90;-1.00;96711.00;;;;5085079;28;20430;-85
2023/01/28 02:59:40;;;;;;;4.03;2.70;;;-0.40;99.90;-0.90;96709.00;;;;5082551;28;20422;-84
2023/01/28 03:02:36;;;;;;;4.23;3.07;;;-1.30;99.90;-1.10;96715.00;;;;5081892;28;20453;-83
2023/01/28 03:05:30;;;;;;;5.30;3.20;;;-1.80;99.90;-1.00;96715.00;;;;5068548;28;20471;-84
2023/01/28 03:36:56;;;;;;;8.70;3.80;;;0.30;99.90;-0.80;96720.00;;;;5068903;28;20434;-83
2023/01/28 03:39:45;;;;;;;4.67;3.03;;;-1.60;99.90;-0.80;96722.00;;;;5086513;28;20422;-81
2023/01/28 03:42:34;;;;;;;4.27;3.40;;;-1.70;99.90;-0.80;96717.00;;;;5087776;28;20457;-84
2023/01/28 03:45:23;;;;;;;6.77;4.47;;;-1.70;99.90;-0.80;96714.00;;;;5070541;28;20466;-84
2023/01/28 03:48:14;;;;;;;7.57;4.03;;;-1.70;99.90;-0.60;96724.00;;;;5071887;28;20430;-83
2023/01/28 03:51:04;;;;;;;4.00;3.17;;;-1.70;99.90;-0.60;96718.00;;;;5087357;28;20458;-84
2023/01/28 03:53:53;;;;;;;3.83;3.23;;;-1.70;99.90;-0.90;96718.00;;;;5086835;28;20423;-83
2023/01/28 03:56:42;;;;;;;3.73;2.90;;;-0.10;99.90;-0.80;96715.00;;;;5076454;28;20427;-84
2023/01/28 03:59:30;;;;;;;3.13;2.83;;;-1.40;99.90;-1.00;96712.00;;;;5084164;28;20430;-84
2023/01/28 04:02:21;;;;;;;2.90;2.63;;;-1.80;99.90;-1.10;96715.00;;;;5086198;28;20461;-83
2023/01/28 04:05:12;;;;;;;3.43;2.63;;;-1.70;99.90;-0.80;96710.00;;;;5088532;28;20467;-84
2023/01/28 04:08:02;;;;;;;3.30;3.00;;;-0.10;99.90;-0.80;96715.00;;;;5087443;28;20473;-84
2023/01/28 04:10:51;;;;;;;4.93;2.87;;;0.50;99.90;-0.80;96716.00;;;;5077726;28;20533;-86
2023/01/28 04:13:40;;;;;;;2.63;2.43;;;-1.30;99.90;-0.50;96725.00;;;;5041720;28;20458;-86
2023/01/28 04:16:29;;;;;;;4.33;2.83;;;-1.70;99.90;-0.40;96722.00;;;;5050418;28;20427;-87
2023/01/28 04:19:18;;;;;;;3.97;3.03;;;-1.60;99.90;-0.30;96718.00;;;;5063219;28;20423;-86
2023/01/28 04:22:10;;;;;;;3.20;2.73;;;-1.50;99.90;-0.30;96714.00;;;;5051227;28;21004;-87
2023/01/28 04:25:00;;;;;;;4.13;2.97;;;-1.50;99.90;-0.50;96724.00;;;;5049824;28;20494;-85
2023/01/28 04:27:48;;;;;;;8.97;4.03;;;-1.30;99.90;-0.50;96714.00;;;;5048864;28;20961;-86
2023/01/28 04:30:37;;;;;;;3.20;2.60;;;-0.20;99.90;-0.40;96721.00;;;;5062723;28;20850;-87
2023/01/28 04:33:26;;;;;;;6.47;2.67;;;-1.50;99.90;-0.40;96724.00;;;;5059798;28;20422;-86
2023/01/28 04:36:15;;;;;;;4.13;2.77;;;-1.50;99.90;-0.50;96736.00;;;;5058104;28;20778;-85
2023/01/28 04:39:04;;;;;;;6.20;3.70;;;0.10;99.90;-0.30;96730.00;;;;5068774;28;20426;-85
2023/01/28 04:41:54;;;;;;;4.17;3.77;;;-0.70;99.90;-0.20;96734.00;;;;5057707;28;20447;-86
2023/01/28 04:44:42;;;;;;;6.57;4.23;;;-1.40;99.90;-0.10;96745.00;;;;5050331;28;20431;-86
2023/01/28 04:47:31;;;;;;;3.53;3.20;;;-1.40;99.90;-0.10;96745.00;;;;5068359;28;20434;-85
2023/01/28 04:50:20;;;;;;;5.47;3.63;;;-1.30;99.90;0.00;96750.00;;;;5045047;28;20435;-85
2023/01/28 04:53:09;;;;;;;5.30;4.10;;;-0.80;99.90;-0.10;96757.00;;;;5061284;28;20422;-86
2023/01/28 04:55:58;;;;;;;3.57;2.80;;;-0.90;99.90;0.00;96752.00;;;;5062003;28;20836;-86
2023/01/28 04:58:48;;;;;;;5.73;3.27;;;-1.00;99.90;0.00;96754.00;;;;5051523;28;20461;-86
2023/01/28 05:01:37;;;;;;;4.10;3.00;;;-0.40;99.90;0.00;96754.00;;;;5069057;28;20446;-86
2023/01/28 05:04:25;;;;;;;3.73;3.03;;;-1.20;99.90;0.00;96748.00;;;;5069768;28;20807;-85
2023/01/28 05:07:14;;;;;;;4.93;3.57;;;-1.20;99.90;0.10;96768.00;;;;5070062;28;20555;-87
2023/01/28 05:10:03;;;;;;;5.17;2.83;;;-1.20;99.90;0.00;96762.00;;;;5068861;28;20427;-85
2023/01/28 05:12:52;;;;;;;10.83;5.40;;;-1.20;99.90;-0.30;96770.00;;;;5054350;28;20455;-86
2023/01/28 05:15:42;;;;;;;8.97;5.83;;;-1.20;99.90;0.00;96777.00;;;;5049816;28;20847;-86
2023/01/28 05:18:31;;;;;;;8.90;5.67;;;-1.20;99.90;0.00;96774.00;;;;5053728;28;20849;-86
2023/01/28 05:21:20;;;;;;;7.73;4.37;;;-0.10;99.90;0.10;96779.00;;;;5068882;28;20458;-85
2023/01/28 05:24:10;;;;;;;5.10;3.30;;;-0.10;99.90;0.10;96776.00;;;;5068958;28;20450;-85
2023/01/28 05:26:58;;;;;;;5.17;4.07;;;-1.20;99.90;0.20;96779.00;;;;5068416;28;20476;-85
2023/01/28 05:29:47;;;;;;;5.63;3.73;;;-1.10;99.90;0.20;96787.00;;;;5040062;28;20423;-86
2023/01/28 05:32:37;;;;;;;5.10;3.80;;;-1.10;99.90;0.20;96792.00;;;;5068922;28;20446;-86
2023/01/28 05:35:26;;;;;;;5.00;3.70;;;-1.10;99.90;0.20;96788.00;;;;5054376;28;20432;-86
2023/01/28 05:38:15;;;;;;;6.07;3.27;;;-1.10;99.90;0.20;96796.00;;;;5057770;28;21149;-86
2023/01/28 05:41:04;;;;;;;8.10;5.80;;;-1.00;99.90;0.20;96793.00;;;;5069584;28;20447;-86
2023/01/28 05:43:52;;;;;;;6.73;5.57;;;-1.00;99.90;0.30;96802.00;;;;5068234;28;20462;-85
2023/01/28 05:46:44;;;;;;;12.87;9.03;;;-1.00;99.90;0.20;96808.00;;;;5068434;28;20573;-85
2023/01/28 05:49:34;;;;;;;19.13;12.67;;;-1.00;99.90;0.20;96810.00;;;;5068705;28;20453;-84
2023/01/28 05:52:23;;;;;;;14.30;10.07;;;0.40;99.90;0.20;96814.00;;;;5049325;28;20497;-87
2023/01/28 05:55:12;;;;;;;9.13;6.23;;;0.10;99.90;0.20;96819.00;;;;5050636;28;20972;-86
2023/01/28 05:58:00;;;;;;;7.43;5.27;;;-0.10;99.90;0.30;96816.00;;;;5068199;28;20430;-85
2023/01/28 06:00:49;;;;;;;7.03;4.83;;;-0.90;99.90;0.20;96827.00;;;;5068532;28;20426;-85
2023/01/28 06:03:38;;;;;;;10.53;6.20;;;-1.00;99.90;0.30;96827.00;;;;5068232;28;20489;-87
2023/01/28 06:06:28;;;;;;;7.53;5.60;;;-0.10;99.90;0.20;96822.00;;;;5068974;28;21015;-84
2023/01/28 06:09:17;;;;;;;10.53;6.67;;;-0.30;99.90;0.30;96828.00;;;;5040822;28;21022;-86
2023/01/28 06:12:06;;;;;;;13.33;8.73;;;-1.00;99.90;0.20;96835.00;;;;5046331;28;21163;-83
2023/01/28 06:14:55;;;;;;;15.53;10.23;;;-0.90;99.90;0.00;96831.00;;;;5038324;28;20435;-86
2023/01/28 06:17:44;;;;;;;16.27;10.83;;;-0.90;99.90;0.20;96833.00;;;;5061012;28;20438;-87
2023/01/28 06:20:33;;;;;;;12.77;9.60;;;-0.60;99.90;0.30;96845.00;;;;5058508;28;20416;-86
2023/01/28 06:23:23;;;;;;;21.60;11.10;;;-1.00;99.90;0.20;96840.00;;;;5054210;28;20543;-85
2023/01/28 06:26:11;;;;;;;22.83;13.40;;;-0.90;99.90;0.30;96845.00;;;;5064712;28;20466;-86
2023/01/28 06:29:00;;;;;;;26.87;15.63;;;-0.90;99.90;0.30;96847.00;;;;5045125;28;20424;-85
2023/01/28 06:31:49;;;;;;;26.47;13.23;;;-0.10;99.90;0.30;96847.00;;;;5048155;28;20501;-85
2023/01/28 06:34:39;;;;;;;29.53;16.37;;;-0.90;99.90;0.20;96851.00;;;;5060594;28;20803;-86
2023/01/28 06:37:27;;;;;;;26.90;17.37;;;0.70;99.90;0.30;96854.00;;;;5050272;28;20434;-86
2023/01/28 06:40:19;;;;;;;24.63;14.93;;;-0.40;99.90;0.30;96868.00;;;;5070225;28;20453;-85
2023/01/28 06:43:07;;;;;;;30.87;16.10;;;-0.90;99.90;0.30;96870.00;;;;5043200;28;20825;-86
2023/01/28 06:45:57;;;;;;;23.67;14.83;;;0.00;99.90;0.40;96876.00;;;;5061319;28;20467;-85
2023/01/28 06:48:46;;;;;;;23.77;14.67;;;-0.80;99.90;0.40;96879.00;;;;5046884;28;20436;-85
2023/01/28 06:51:34;;;;;;;28.53;17.77;;;-0.80;99.90;0.40;96879.00;;;;5043083;28;20440;-86
2023/01/28 06:54:23;;;;;;;26.57;15.33;;;0.30;99.90;0.40;96889.00;;;;5056842;28;20430;-86
2023/01/28 06:57:13;;;;;;;26.40;17.37;;;-0.80;99.90;0.30;96881.00;;;;5072582;28;20517;-86
2023/01/28 07:00:03;;;;;;;23.53;15.70;;;-0.80;99.90;0.40;96901.00;;;;5058036;28;20447;-86
2023/01/28 07:02:55;;;;;;;27.83;16.73;;;-0.80;99.90;0.50;96893.00;;;;5046680;28;20465;-85
2023/01/28 07:05:44;;;;;;;26.40;16.13;;;-0.30;99.90;0.50;96895.00;;;;5053214;28;20840;-85
2023/01/28 07:08:33;;;;;;;26.67;16.57;;;-0.70;99.90;0.60;96899.00;;;;5054946;28;20447;-85
2023/01/28 07:11:22;;;;;;;27.83;16.70;;;-0.70;99.90;0.50;96903.00;;;;5046177;28;21010;-87
2023/01/28 07:14:12;;;;;;;23.43;16.93;;;0.10;99.90;0.50;96900.00;;;;5033647;28;20441;-85
2023/01/28 07:17:00;;;;;;;25.87;16.47;;;-0.70;99.90;0.60;96904.00;;;;5045791;28;20427;-85
2023/01/28 07:19:49;;;;;;;32.10;19.00;;;0.40;99.90;0.60;96903.00;;;;5038576;28;20545;-85
2023/01/28 07:22:40;;;;;;;28.17;15.50;;;-0.60;99.90;0.70;96901.00;;;;5048642;28;20460;-87
2023/01/28 07:25:29;;;;;;;31.50;19.90;;;0.00;99.90;0.80;96914.00;;;;5047608;28;20427;-87
2023/01/28 07:28:20;;;;;;;31.23;18.43;;;0.20;99.90;0.90;96913.00;;;;5048032;28;20509;-87
2023/01/28 07:31:10;;;;;;;25.97;18.10;;;0.60;99.90;0.90;96918.00;;;;5047090;28;20462;-86
2023/01/28 07:33:59;;;;;;;30.83;17.37;;;0.60;99.90;1.00;96924.00;;;;5050298;28;20446;-85
2023/01/28 07:36:48;;;;;;;27.27;17.53;;;-0.40;99.90;1.00;96914.00;;;;5049860;28;20454;-85
2023/01/28 07:39:37;;;;;;;27.03;15.00;;;0.00;99.90;1.10;96928.00;;;;5049283;28;20427;-86
2023/01/28 07:42:26;;;;;;;26.07;16.67;;;-0.30;99.90;1.10;96921.00;;;;5049062;28;20992;-86
2023/01/28 07:45:16;;;;;;;24.07;17.17;;;0.40;99.90;1.10;96912.00;;;;5052448;28;20423;-87
2023/01/28 07:48:09;;;;;;;28.13;16.60;;;-0.20;99.90;1.30;96923.00;;;;5046449;28;20885;-87
2023/01/28 07:51:00;;;;;;;26.93;16.27;;;-0.10;99.90;1.30;96921.00;;;;5048302;28;20424;-86
2023/01/28 07:53:49;;;;;;;23.80;13.57;;;-0.10;99.90;1.60;96928.00;;;;5033732;28;20922;-86
2023/01/28 07:56:37;;;;;;;26.13;14.83;;;0.00;99.90;1.60;96929.00;;;;4981141;28;20511;-86
2023/01/28 07:59:26;;;;;;;26.63;14.63;;;0.10;99.90;1.40;96932.00;;;;5029554;28;20432;-85
2023/01/28 08:02:15;;;;;;;24.47;15.50;;;1.40;99.90;1.60;96923.00;;;;5012525;28;20456;-86
2023/01/28 08:05:07;;;;;;;28.17;14.30;;;0.90;99.90;1.70;96930.00;;;;5033879;28;21045;-85
2023/01/28 08:07:56;;;;;;;33.40;16.07;;;0.30;99.90;1.80;96928.00;;;;5028268;28;20483;-85
2023/01/28 08:10:45;;;;;;;27.30;16.17;;;0.80;99.90;1.80;96926.00;;;;5033490;28;20620;-85
2023/01/28 08:13:34;;;;;;;20.97;12.80;;;0.90;99.90;1.80;96933.00;;;;5028829;28;20951;-85
2023/01/28 08:16:23;;;;;;;26.63;15.23;;;0.50;99.90;1.90;96942.00;;;;5022129;28;20811;-85
2023/01/28 08:19:11;;;;;;;29.70;16.40;;;1.50;99.90;1.70;96942.00;;;;5032818;28;20420;-86
2023/01/28 08:22:02;;;;;;;31.33;16.20;;;0.50;99.90;1.80;96944.00;;;;5018107;28;20934;-85
2023/01/28 08:24:50;;;;;;;25.60;15.20;;;1.10;99.90;1.80;96949.00;;;;5035946;28;20937;-86
2023/01/28 08:27:39;;;;;;;23.00;14.87;;;1.60;99.90;1.80;96957.00;;;;5033860;28;20472;-86
2023/01/28 08:30:28;;;;;;;31.70;14.57;;;0.50;99.90;1.80;96949.00;;;;5026163;28;20432;-86
2023/01/28 08:33:18;;;;;;;20.40;14.70;;;0.50;99.90;1.90;96953.00;;;;5028566;28;20444;-86
2023/01/28 08:36:08;;;;;;;20.50;12.60;;;0.60;99.90;2.00;96957.00;;;;5025983;28;20425;-85
2023/01/28 08:38:58;;;;;;;20.50;13.03;;;0.60;99.90;1.90;96951.00;;;;5028739;28;20978;-87
2023/01/28 08:41:47;;;;;;;20.70;13.10;;;0.60;99.90;2.00;96958.00;;;;5029549;28;20856;-85
2023/01/28 08:44:36;;;;;;;25.37;13.40;;;0.60;99.90;1.90;96960.00;;;;5023966;28;20944;-86
2023/01/28 08:47:24;;;;;;;24.57;15.20;;;0.80;99.90;2.10;96965.00;;;;5030313;28;20538;-86
2023/01/28 08:50:13;;;;;;;19.73;11.97;;;0.60;99.90;2.00;96969.00;;;;5026169;28;20539;-86
2023/01/28 08:53:06;;;;;;;17.73;11.77;;;0.70;99.90;2.00;96974.00;;;;5026729;28;20554;-86
2023/01/28 08:55:56;;;;;;;18.33;11.57;;;0.70;99.90;2.00;96983.00;;;;5044266;28;20948;-86
2023/01/28 08:58:45;;;;;;;20.77;12.67;;;2.20;99.90;2.00;96985.00;;;;5033315;28;20435;-87
2023/01/28 09:01:33;;;;;;;20.50;13.33;;;0.90;99.90;2.10;96981.00;;;;5034844;28;21019;-86
2023/01/28 09:04:22;;;;;;;19.53;12.00;;;0.70;99.90;2.10;96988.00;;;;5027894;28;20502;-86
2023/01/28 09:07:11;;;;;;;20.43;13.53;;;1.50;99.90;2.30;96989.00;;;;5026228;28;20558;-85
2023/01/28 09:09:59;;;;;;;17.90;11.90;;;1.40;99.90;2.10;96989.00;;;;5037142;28;20424;-85
2023/01/28 09:12:50;;;;;;;21.43;13.60;;;1.70;99.90;2.30;97004.00;;;;5039346;28;20533;-85
2023/01/28 09:15:39;;;;;;;22.63;13.03;;;1.40;99.90;2.20;96997.00;;;;5029477;28;20433;-85
2023/01/28 09:18:27;;;;;;;22.33;13.17;;;1.60;99.90;2.40;96997.00;;;;5035691;28;20494;-84
2023/01/28 09:21:16;;;;;;;20.80;11.80;;;0.90;99.90;2.30;96993.00;;;;5031264;28;20440;-84
2023/01/28 09:24:06;;;;;;;23.60;14.87;;;1.20;99.90;2.40;97007.00;;;;5023391;28;20467;-84
2023/01/28 09:26:54;;;;;;;17.83;13.00;;;1.00;99.90;2.30;97005.00;;;;5029835;28;20450;-84
2023/01/28 09:29:45;;;;;;;25.43;13.60;;;1.60;99.90;2.40;97007.00;;;;5034999;28;20459;-85
2023/01/28 09:32:33;;;;;;;21.30;12.07;;;1.00;99.90;2.50;97016.00;;;;5038613;28;21096;-85
2023/01/28 09:35:23;;;;;;;18.03;11.80;;;1.10;99.90;2.50;97017.00;;;;5030465;28;20934;-84
2023/01/28 09:38:11;;;;;;;19.70;11.73;;;1.50;99.90;2.60;97010.00;;;;5021709;28;20978;-85
2023/01/28 09:41:02;;;;;;;19.53;12.03;;;1.10;99.90;2.50;97023.00;;;;5031655;28;20935;-84
2023/01/28 09:44:05;;;;;;;16.37;11.70;;;1.50;99.90;2.50;97021.00;;;;5024482;28;20935;-86
2023/01/28 09:47:02;;;;;;;20.07;12.63;;;1.20;99.90;2.50;97019.00;;;;5024788;28;20428;-85
2023/01/28 09:49:55;;;;;;;24.03;13.50;;;1.20;99.90;2.50;97027.00;;;;5023561;28;20429;-84
2023/01/28 09:52:45;;;;;;;25.63;13.97;;;2.00;99.90;2.50;97017.00;;;;5038398;28;20451;-84
2023/01/28 09:55:39;;;;;;;27.77;13.80;;;1.20;99.90;2.50;97021.00;;;;5032439;28;20432;-85
2023/01/28 09:58:28;;;;;;;19.10;12.33;;;1.80;99.90;2.50;97020.00;;;;5025520;28;20417;-85
2023/01/28 10:01:36;;;;;;;21.87;12.30;;;1.20;99.90;2.50;97010.00;;;;5026567;28;20985;-85
2023/01/28 10:04:48;;;;;;;19.83;12.87;;;1.60;99.90;2.60;97006.00;;;;5014123;28;20433;-84
2023/01/28 10:07:48;;;;;;;19.87;11.90;;;1.20;99.90;2.50;97020.00;;;;5031707;28;20433;-84
2023/01/28 10:10:45;;;;;;;17.07;11.83;;;1.30;99.90;2.50;97019.00;;;;5038528;28;20428;-84
2023/01/28 10:13:45;;;;;;;18.30;12.30;;;1.20;99.90;2.50;97021.00;;;;5030161;28;20448;-85
2023/01/28 10:16:41;;;;;;;17.87;11.20;;;1.20;99.90;2.70;97018.00;;;;5041755;28;20895;-85
2023/01/28 10:19:36;;;;;;;17.83;11.83;;;1.20;99.90;2.70;97006.00;;;;5049887;28;20459;-84
2023/01/28 10:22:30;;;;;;;18.13;9.97;;;1.50;99.90;2.50;97008.00;;;;5049875;28;20829;-84
2023/01/28 10:25:21;;;;;;;18.20;11.63;;;1.30;99.90;2.30;97015.00;;;;5022399;28;20424;-85
2023/01/28 10:28:20;;;;;;;22.17;12.93;;;1.30;99.90;2.60;97013.00;;;;5024850;28;20967;-85
2023/01/28 10:31:14;;;;;;;20.53;11.80;;;1.30;99.90;2.60;97024.00;;;;5048313;28;20954;-85
2023/01/28 10:34:03;;;;;;;19.60;12.33;;;1.50;99.90;2.80;97018.00;;;;5033773;28;20428;-85
2023/01/28 10:36:54;;;;;;;16.33;10.63;;;1.40;99.90;2.90;97022.00;;;;5029844;28;20413;-84
2023/01/28 10:39:44;;;;;;;17.40;11.67;;;1.40;99.90;3.00;97013.00;;;;5023689;28;20471;-84
2023/01/28 10:42:35;;;;;;;19.43;11.10;;;1.60;99.90;3.10;97017.00;;;;5026613;28;20454;-86
2023/01/28 10:45:28;;;;;;;18.70;10.57;;;1.60;99.90;3.10;97012.00;;;;5028600;28;20848;-84
2023/01/28 10:48:24;;;;;;;20.93;12.13;;;1.70;99.90;3.10;97019.00;;;;5026981;28;20468;-86
2023/01/28 10:51:14;;;;;;;17.23;12.37;;;1.70;99.90;3.10;97018.00;;;;5029736;28;20455;-85
2023/01/28 10:54:18;;;;;;;19.93;11.97;;;1.70;99.90;3.20;97007.00;;;;5029374;28;20919;-85
2023/01/28 10:57:13;;;;;;;18.37;10.93;;;1.70;99.90;3.40;97012.00;;;;5030485;28;20424;-85
2023/01/28 11:00:13;;;;;;;20.20;12.43;;;1.80;99.90;3.20;97004.00;;;;5030201;28;20424;-86
2023/01/28 11:03:02;;;;;;;23.00;12.10;;;1.80;99.90;3.30;97007.00;;;;5030380;28;20456;-86
2023/01/28 11:05:53;;;;;;;24.30;13.53;;;1.80;99.90;3.40;97008.00;;;;5046066;28;20428;-84
2023/01/28 11:08:45;;;;;;;21.57;13.63;;;1.90;99.90;3.60;97007.00;;;;5024506;28;20475;-85
2023/01/28 11:11:35;;;;;;;16.43;10.67;;;1.90;99.90;3.70;97005.00;;;;5049994;28;20451;-85
2023/01/28 11:14:27;;;;;;;18.20;11.97;;;2.20;99.90;3.90;96999.00;;;;5025938;28;20453;-85
2023/01/28 11:17:18;;;;;;;20.40;10.80;;;2.20;99.90;3.80;97005.00;;;;5025771;28;20444;-85
2023/01/28 11:20:13;;;;;;;21.60;13.13;;;2.20;99.90;3.80;96998.00;;;;5028287;28;20428;-84
2023/01/28 11:23:02;;;;;;;19.87;12.77;;;2.30;99.90;3.80;96996.00;;;;5033281;28;20838;-86
2023/01/28 11:26:03;;;;;;;20.50;12.03;;;2.30;99.90;4.20;97002.00;;;;5031451;28;20858;-85
2023/01/28 11:28:54;;;;;;;19.97;12.10;;;2.40;99.90;4.00;96988.00;;;;5032766;28;20995;-85
2023/01/28 11:31:44;;;;;;;21.23;12.87;;;2.40;99.90;4.00;96992.00;;;;5031060;28;20693;-86
2023/01/28 11:34:35;;;;;;;19.07;12.90;;;2.50;99.90;4.10;96992.00;;;;5031213;28;20436;-85
2023/01/28 11:37:26;;;;;;;17.30;11.83;;;2.50;99.90;4.00;96991.00;;;;5034304;28;20471;-85
2023/01/28 11:40:19;;;;;;;19.37;12.70;;;2.60;99.90;3.90;96990.00;;;;5026639;28;20439;-85
2023/01/28 11:43:09;;;;;;;19.37;11.97;;;2.60;99.90;4.00;96984.00;;;;5027795;28;20813;-84
2023/01/28 11:46:13;;;;;;;21.57;11.83;;;2.50;99.90;3.80;96975.00;;;;5033024;28;20563;-85
2023/01/28 11:49:10;;;;;;;19.83;12.30;;;2.50;99.90;3.80;96984.00;;;;5031235;28;20471;-85
2023/01/28 11:52:07;;;;;;;18.27;12.30;;;2.50;99.90;3.80;96978.00;;;;5032935;28;20228;-85
2023/01/28 11:55:11;;;;;;;20.33;12.00;;;2.50;99.90;3.80;96977.00;;;;5053813;28;20587;-84
2023/01/28 11:58:07;;;;;;;20.40;11.97;;;2.50;99.90;3.80;96983.00;;;;5042352;28;20196;-86
2023/01/28 12:01:06;;;;;;;20.80;12.10;;;2.50;99.90;3.70;96977.00;;;;5026059;28;20209;-85
2023/01/28 12:04:32;;;;;;;23.00;14.00;;;2.50;99.90;3.80;96972.00;;;;5028453;28;20752;-87
2023/01/28 12:07:36;;;;;;;17.97;11.67;;;2.40;99.90;3.80;96985.00;;;;5036937;28;20513;-86
2023/01/28 12:10:36;;;;;;;21.30;12.77;;;2.40;99.90;3.90;96972.00;;;;5033531;28;20475;-85
2023/01/28 12:13:42;;;;;;;22.97;14.60;;;2.50;99.90;3.90;96978.00;;;;5023660;28;20447;-85
2023/01/28 12:16:51;;;;;;;23.70;13.47;;;2.40;99.90;3.90;96976.00;;;;5025910;28;20425;-85
2023/01/28 12:20:01;;;;;;;26.20;13.47;;;2.50;99.90;3.80;96976.00;;;;5029318;28;20680;-85
2023/01/28 12:23:18;;;;;;;20.37;12.30;;;2.40;99.90;3.60;96977.00;;;;5031407;28;20436;-86
2023/01/28 12:26:15;;;;;;;22.50;13.07;;;2.30;99.90;3.40;96966.00;;;;5029241;28;20472;-86
2023/01/28 12:29:22;;;;;;;24.50;12.37;;;2.20;99.90;3.40;96961.00;;;;5030147;28;20592;-86
2023/01/28 12:32:39;;;;;;;21.83;12.53;;;2.10;99.90;3.40;96957.00;;;;5029289;28;20480;-85
2023/01/28 12:35:46;;;;;;;21.13;12.87;;;2.10;99.90;3.40;96955.00;;;;5027298;28;20417;-85
2023/01/28 12:38:48;;;;;;;15.73;10.53;;;2.00;99.90;3.30;96949.00;;;;5028499;28;20911;-86
2023/01/28 12:41:42;;;;;;;18.93;11.00;;;2.00;99.90;3.10;96956.00;;;;5030926;28;20448;-86
2023/01/28 12:44:38;;;;;;;22.70;12.03;;;1.90;99.90;3.20;96954.00;;;;5029780;28;20420;-86
2023/01/28 12:47:35;;;;;;;15.63;11.57;;;1.90;99.90;3.20;96962.00;;;;5028020;28;20420;-85
2023/01/28 12:50:29;;;;;;;18.23;11.53;;;1.80;99.90;3.20;96958.00;;;;5025925;28;20468;-84
2023/01/28 12:53:25;;;;;;;20.10;12.83;;;1.80;99.90;3.20;96964.00;;;;5021753;28;20440;-85
2023/01/28 12:56:17;;;;;;;19.83;12.43;;;1.80;99.90;3.20;96952.00;;;;5025710;28;20455;-86
2023/01/28 12:59:14;;;;;;;27.73;16.80;;;1.80;99.90;3.10;96968.00;;;;5026372;28;20429;-85
2023/01/28 13:02:22;;;;;;;21.50;13.70;;;1.80;99.90;3.20;96961.00;;;;5030420;28;20487;-85
2023/01/28 13:05:17;;;;;;;21.70;12.90;;;2.20;99.90;3.10;96951.00;;;;5031718;28;20949;-84
2023/01/28 13:08:14;;;;;;;25.63;14.47;;;2.90;99.90;3.20;96958.00;;;;5028232;28;20440;-84
2023/01/28 13:11:05;;;;;;;29.27;13.77;;;1.80;99.90;3.20;96959.00;;;;5024642;28;20868;-85
2023/01/28 13:13:54;;;;;;;19.97;12.40;;;1.90;99.90;3.30;96969.00;;;;5031129;28;20516;-86
2023/01/28 13:16:43;;;;;;;20.27;13.03;;;1.90;99.90;3.30;96966.00;;;;5029532;28;20428;-86
2023/01/28 13:19:38;;;;;;;21.97;13.53;;;1.90;99.90;3.20;96973.00;;;;5026672;28;20436;-86